Terminal Aerodrome Forecast
Issued by NWS Portland, OR

Home | Current Version | Previous Version | Text Only | Print | Product List | Glossary On
Versions: 1 2 3 4 5 6 7 8 9 10 11 12 13 14 15 16 17 18 19 20 21 22 23 24 25 26 27 28
000
FTUS46 KPQR 301426 AAA
TAFTTD
TAF AMD
KTTD 301426Z 3014/0112 00000KT 5SM BR BKN007
     FM301600 00000KT P6SM SCT007
     FM301900 27007KT P6SM SCT080 BKN150
     FM302200 21006KT P6SM SCT050 OVC100
     FM010600 15005KT P6SM -SHRA SCT030 OVC050=

USA.gov is the U.S. government's official web portal to all federal, state and local government web resources and services.